Terminal Aerodrome Forecast
Issued by NWS

Home | Current Version | Previous Version | Text Only | Print | Product List | Glossary Off
Versions: 1 2 3 4 5 6 7 8 9 10 11 12 13 14 15 16 17 18 19 20 21 22 23 24 25 26 27 28 29 30 31 32 33 34 35 36 37

000
FTUS43 KLOT 261905 AAA
TAFORD
TAF AMD
KORD 261905Z 2619/2724 21015G24KT P6SM VCSH SCT025 OVC100
      TEMPO 2621/2623 3SM RA BKN020
     FM270000 21010KT P6SM SCT020 BKN035
     FM270500 22011KT P6SM SCT035 BKN250
     FM270900 23009KT 5SM BR BKN015
     FM271300 26012KT P6SM SCT025
     FM271800 27012KT P6SM -SHRA SCT025 OVC200=

USA.gov is the U.S. government's official web portal to all federal, state and local government web resources and services.